Time;durP1;ratioP1;P1;durP2;ratioP2;P2;SDS_P1;SDS_P2;PMS_P1;PMS_P2;Temp;Humidity;BMP_temperature;BMP_pressure;BME280_temperature;BME280_humidity;BME280_pressure;Samples;Min_cycle;Max_cycle;Signal;HPM_P1;HPM_P2
2023/08/01 00:02:01;;;;;;;1.70;0.80;;;19.30;99.90;;;;;;4947759;28;20058;-84
2023/08/01 00:04:27;;;;;;;1.83;1.20;;;19.30;99.90;;;;;;4919708;28;20638;-85
2023/08/01 00:06:53;;;;;;;1.00;0.90;;;19.30;99.90;;;;;;4955709;28;20046;-85
2023/08/01 00:09:18;;;;;;;1.33;0.80;;;19.30;99.90;;;;;;4970598;28;20102;-88
2023/08/01 00:11:44;;;;;;;1.30;1.10;;;19.20;99.90;;;;;;4973978;28;20038;-83
2023/08/01 00:14:10;;;;;;;1.98;1.13;;;19.20;99.90;;;;;;4949202;28;20658;-88
2023/08/01 00:16:36;;;;;;;1.13;1.00;;;19.20;99.90;;;;;;4956764;28;20030;-84
2023/08/01 00:19:02;;;;;;;1.15;0.88;;;17.60;99.90;;;;;;4929362;28;20257;-85
2023/08/01 00:21:30;;;;;;;1.42;0.90;;;19.10;99.90;;;;;;4957304;28;20041;-87
2023/08/01 00:23:56;;;;;;;1.30;1.00;;;19.10;99.90;;;;;;4949144;28;20018;-88
2023/08/01 00:26:22;;;;;;;1.00;0.85;;;19.10;99.90;;;;;;4954997;28;20025;-87
2023/08/01 00:28:48;;;;;;;2.00;1.20;;;19.00;99.90;;;;;;4946282;28;20026;-82
2023/08/01 00:31:14;;;;;;;1.85;1.05;;;19.00;99.90;;;;;;4954008;28;20034;-85
2023/08/01 00:33:40;;;;;;;2.60;1.30;;;19.00;99.90;;;;;;4953420;28;20092;-82
2023/08/01 00:36:10;;;;;;;2.58;1.20;;;19.00;99.90;;;;;;4957763;28;20371;-85
2023/08/01 00:38:37;;;;;;;2.80;1.30;;;18.90;99.90;;;;;;4978313;28;20037;-82
2023/08/01 00:41:03;;;;;;;2.42;1.48;;;18.90;99.90;;;;;;4948991;28;20041;-86
2023/08/01 00:43:29;;;;;;;3.80;1.45;;;18.90;99.90;;;;;;4980243;28;20026;-85
2023/08/01 00:46:00;;;;;;;1.95;1.40;;;18.80;99.90;;;;;;4963796;28;20038;-85
2023/08/01 00:48:26;;;;;;;2.30;1.47;;;18.80;99.90;;;;;;4969741;28;20038;-85
2023/08/01 00:50:56;;;;;;;2.13;1.50;;;18.80;99.90;;;;;;4959720;28;20041;-83
2023/08/01 00:53:22;;;;;;;2.40;1.58;;;18.80;99.90;;;;;;4947740;28;20026;-86
2023/08/01 00:55:49;;;;;;;2.47;1.30;;;18.70;99.90;;;;;;4969233;28;20030;-82
2023/08/01 00:58:15;;;;;;;2.90;1.50;;;18.70;99.90;;;;;;4947599;28;20129;-85
2023/08/01 01:00:41;;;;;;;2.75;1.40;;;18.60;99.90;;;;;;4950365;28;20073;-82
2023/08/01 01:03:07;;;;;;;2.90;1.60;;;18.60;99.90;;;;;;4961131;28;20231;-83
2023/08/01 01:05:37;;;;;;;2.33;1.60;;;18.60;99.90;;;;;;4965367;28;20413;-84
2023/08/01 01:08:04;;;;;;;2.20;1.40;;;18.60;99.90;;;;;;4958756;28;20501;-82
2023/08/01 01:10:30;;;;;;;3.03;1.70;;;18.50;99.90;;;;;;4967737;28;20026;-82
2023/08/01 01:12:56;;;;;;;3.00;1.80;;;18.50;99.90;;;;;;4939230;28;20258;-81
2023/08/01 01:15:21;;;;;;;3.87;1.90;;;18.40;99.90;;;;;;4950333;28;20035;-81
2023/08/01 01:17:47;;;;;;;3.00;1.75;;;18.40;99.90;;;;;;4978281;28;20068;-83
2023/08/01 01:20:13;;;;;;;5.27;1.90;;;18.40;99.90;;;;;;4952868;28;20281;-84
2023/08/01 01:22:40;;;;;;;2.60;1.63;;;18.40;99.90;;;;;;4943555;28;20058;-83
2023/08/01 01:25:08;;;;;;;2.25;1.63;;;18.40;99.90;;;;;;4981048;28;20129;-83
2023/08/01 01:27:36;;;;;;;2.80;1.73;;;18.40;99.90;;;;;;4954958;28;20045;-82
2023/08/01 01:30:04;;;;;;;3.90;2.10;;;18.40;99.90;;;;;;4948191;28;20441;-82
2023/08/01 01:32:30;;;;;;;2.80;1.75;;;18.40;99.90;;;;;;4957282;28;20038;-82
2023/08/01 01:34:56;;;;;;;2.45;1.52;;;18.40;99.90;;;;;;4982446;28;21004;-82
2023/08/01 01:37:21;;;;;;;3.33;1.90;;;19.30;99.90;;;;;;4934717;28;20262;-83
2023/08/01 01:39:47;;;;;;;2.43;1.50;;;18.30;99.90;;;;;;4965480;28;20067;-81
2023/08/01 01:42:13;;;;;;;2.35;1.70;;;18.30;99.90;;;;;;4953382;28;20056;-81
2023/08/01 01:44:39;;;;;;;2.95;1.58;;;18.30;99.90;;;;;;4977999;28;20034;-81
2023/08/01 01:47:05;;;;;;;5.13;1.70;;;18.40;99.90;;;;;;4954326;28;20030;-81
2023/08/01 01:49:31;;;;;;;2.70;2.03;;;18.40;99.90;;;;;;4954475;28;20126;-81
2023/08/01 01:51:57;;;;;;;2.97;1.80;;;18.40;99.90;;;;;;4981562;28;20030;-82
2023/08/01 01:54:22;;;;;;;2.77;1.90;;;18.30;99.90;;;;;;4958677;28;20368;-84
2023/08/01 01:56:48;;;;;;;2.33;1.57;;;18.30;99.90;;;;;;4943413;28;20523;-81
2023/08/01 01:59:14;;;;;;;2.88;1.65;;;18.30;99.90;;;;;;4971991;28;20084;-81
2023/08/01 02:01:39;;;;;;;3.47;2.10;;;18.30;99.90;;;;;;4961695;28;20128;-81
2023/08/01 02:04:05;;;;;;;5.60;1.90;;;18.30;99.90;;;;;;4964861;28;20046;-81
2023/08/01 02:06:31;;;;;;;2.80;1.87;;;18.40;99.90;;;;;;4957685;28;20594;-80
2023/08/01 02:08:56;;;;;;;2.75;1.85;;;18.30;99.90;;;;;;4943881;28;20069;-79
2023/08/01 02:11:22;;;;;;;4.40;1.90;;;18.30;99.90;;;;;;4958200;28;20240;-81
2023/08/01 02:13:48;;;;;;;3.72;1.92;;;18.30;99.90;;;;;;4955518;28;20379;-84
2023/08/01 02:16:13;;;;;;;4.03;2.03;;;18.30;99.90;;;;;;4978412;28;20080;-80
2023/08/01 02:18:39;;;;;;;2.70;1.77;;;18.30;99.90;;;;;;4950757;28;20069;-81
2023/08/01 02:21:05;;;;;;;3.80;1.80;;;18.30;99.90;;;;;;4947486;28;20022;-81
2023/08/01 02:23:31;;;;;;;2.83;1.90;;;18.30;99.90;;;;;;4936173;28;20204;-82
2023/08/01 02:25:58;;;;;;;3.55;1.88;;;18.30;99.90;;;;;;4977062;28;20034;-80
2023/08/01 02:28:23;;;;;;;3.73;1.83;;;18.30;99.90;;;;;;4960213;28;20052;-81
2023/08/01 02:30:50;;;;;;;3.13;1.90;;;18.30;99.90;;;;;;4928956;28;20396;-81
2023/08/01 02:33:16;;;;;;;4.07;2.40;;;18.30;99.90;;;;;;4948224;28;20038;-81
2023/08/01 02:35:42;;;;;;;4.33;2.30;;;18.30;99.90;;;;;;4962071;28;20042;-80
2023/08/01 02:38:07;;;;;;;4.07;2.13;;;18.30;99.90;;;;;;4962881;28;20041;-82
2023/08/01 02:40:33;;;;;;;3.97;2.33;;;18.30;99.90;;;;;;4944888;28;20045;-82
2023/08/01 02:42:59;;;;;;;3.22;1.92;;;18.30;99.90;;;;;;4931529;28;20706;-83
2023/08/01 02:45:25;;;;;;;3.97;2.30;;;18.30;99.90;;;;;;4953501;28;21051;-81
2023/08/01 02:47:50;;;;;;;3.45;2.20;;;18.30;99.90;;;;;;4946902;28;20173;-81
2023/08/01 02:50:16;;;;;;;4.07;2.13;;;18.20;99.90;;;;;;4968759;28;20667;-81
2023/08/01 02:52:42;;;;;;;3.30;2.00;;;18.20;99.90;;;;;;4956449;28;20117;-81
2023/08/01 02:55:08;;;;;;;3.40;1.90;;;18.30;99.90;;;;;;4929231;28;25012;-82
2023/08/01 02:57:33;;;;;;;4.17;2.23;;;18.20;99.90;;;;;;4979445;28;21524;-80
2023/08/01 02:59:59;;;;;;;3.97;2.40;;;18.20;99.90;;;;;;4952098;28;20137;-81
2023/08/01 03:02:27;;;;;;;4.83;2.20;;;18.20;99.90;;;;;;4960639;28;20051;-80
2023/08/01 03:04:53;;;;;;;3.92;2.33;;;18.20;99.90;;;;;;4944883;28;20113;-80
2023/08/01 03:07:18;;;;;;;4.43;2.60;;;18.20;99.90;;;;;;4972488;28;20041;-81
2023/08/01 03:09:44;;;;;;;4.53;2.53;;;18.20;99.90;;;;;;4947728;28;20412;-80
2023/08/01 03:12:10;;;;;;;4.97;2.60;;;18.20;99.90;;;;;;4938306;28;20488;-80
2023/08/01 03:14:36;;;;;;;5.00;2.97;;;18.20;99.90;;;;;;4947197;28;20237;-80
2023/08/01 03:17:02;;;;;;;5.80;3.00;;;18.20;99.90;;;;;;4973726;28;20485;-81
2023/08/01 03:19:27;;;;;;;6.13;3.47;;;18.10;99.90;;;;;;4944243;28;20026;-81
2023/08/01 03:21:53;;;;;;;4.32;2.65;;;18.10;99.90;;;;;;4962867;28;20070;-81
2023/08/01 03:24:19;;;;;;;5.75;2.90;;;18.10;99.90;;;;;;4943407;28;20674;-81
2023/08/01 03:26:45;;;;;;;6.17;3.30;;;18.10;99.90;;;;;;4945659;28;20332;-82
2023/08/01 03:29:10;;;;;;;5.72;3.22;;;18.10;99.90;;;;;;4962161;28;20209;-82
2023/08/01 03:31:36;;;;;;;4.50;2.87;;;18.10;99.90;;;;;;4940455;28;20628;-81
2023/08/01 03:34:02;;;;;;;4.90;2.90;;;18.10;99.90;;;;;;4946782;28;20064;-80
2023/08/01 03:36:28;;;;;;;5.57;2.90;;;18.10;99.90;;;;;;4975812;28;20027;-80
2023/08/01 03:38:55;;;;;;;4.55;2.78;;;18.10;99.90;;;;;;4963750;28;20034;-82
2023/08/01 03:41:21;;;;;;;5.15;3.03;;;18.10;99.90;;;;;;4951050;28;20045;-81
2023/08/01 03:43:46;;;;;;;5.87;3.63;;;18.10;99.90;;;;;;4945137;28;20058;-82
2023/08/01 03:46:12;;;;;;;4.55;2.83;;;18.10;99.90;;;;;;4939542;28;20019;-80
2023/08/01 03:48:38;;;;;;;5.33;3.30;;;18.10;99.90;;;;;;4973591;28;20039;-82
2023/08/01 03:51:04;;;;;;;5.72;3.15;;;18.10;99.90;;;;;;4964511;28;20034;-81
2023/08/01 03:53:30;;;;;;;5.25;3.00;;;18.10;99.90;;;;;;4953309;28;20535;-81
2023/08/01 03:55:56;;;;;;;6.90;3.30;;;18.10;99.90;;;;;;4961019;28;20053;-82
2023/08/01 03:58:21;;;;;;;6.85;3.42;;;18.10;99.90;;;;;;4932864;28;20078;-81
2023/08/01 04:00:47;;;;;;;5.05;3.08;;;18.00;99.90;;;;;;4958857;28;20026;-81
2023/08/01 04:03:13;;;;;;;8.13;3.40;;;18.10;99.90;;;;;;4927552;28;20049;-80
2023/08/01 04:05:38;;;;;;;5.97;3.33;;;18.00;99.90;;;;;;4944538;28;20149;-81
2023/08/01 04:08:04;;;;;;;6.27;3.47;;;18.10;99.90;;;;;;4964796;28;20065;-82
2023/08/01 04:10:30;;;;;;;6.82;3.30;;;18.10;99.90;;;;;;4959797;28;20492;-80
2023/08/01 04:12:56;;;;;;;6.10;3.23;;;18.00;99.90;;;;;;4941608;28;20036;-81
2023/08/01 04:15:22;;;;;;;5.78;3.03;;;18.00;99.90;;;;;;4960702;28;20253;-81
2023/08/01 04:17:47;;;;;;;6.27;3.43;;;18.00;99.90;;;;;;4948702;28;20539;-81
2023/08/01 04:20:13;;;;;;;7.07;3.42;;;18.00;99.90;;;;;;4939737;28;20715;-81
2023/08/01 04:22:39;;;;;;;7.43;3.07;;;18.50;99.90;;;;;;4955862;28;20651;-83
2023/08/01 04:25:05;;;;;;;6.95;3.13;;;18.00;99.90;;;;;;4960740;28;20022;-83
2023/08/01 04:27:31;;;;;;;6.35;3.10;;;18.00;99.90;;;;;;4930487;28;21650;-80
2023/08/01 04:29:56;;;;;;;5.53;3.10;;;18.00;99.90;;;;;;4959379;28;20011;-81
2023/08/01 04:32:22;;;;;;;5.43;3.60;;;18.00;99.90;;;;;;4957100;28;20376;-81
2023/08/01 04:34:49;;;;;;;6.63;3.70;;;18.00;99.90;;;;;;4952966;28;20054;-80
2023/08/01 04:37:15;;;;;;;5.90;3.30;;;18.00;99.90;;;;;;4945207;28;20038;-81
2023/08/01 04:39:40;;;;;;;6.15;3.20;;;18.00;99.90;;;;;;4948151;28;20501;-81
2023/08/01 04:42:06;;;;;;;5.23;3.03;;;18.00;99.90;;;;;;4954811;28;20027;-81
2023/08/01 04:44:32;;;;;;;7.97;3.25;;;18.00;99.90;;;;;;4939988;28;20121;-82
2023/08/01 04:46:58;;;;;;;4.43;2.83;;;18.00;99.90;;;;;;4960260;28;23342;-80
2023/08/01 04:49:26;;;;;;;6.23;3.40;;;18.00;99.90;;;;;;4940596;28;20355;-81
2023/08/01 04:51:52;;;;;;;6.25;3.00;;;18.00;99.90;;;;;;4937116;28;20027;-81
2023/08/01 04:54:18;;;;;;;5.00;3.00;;;18.00;99.90;;;;;;4950390;28;20046;-82
2023/08/01 04:56:43;;;;;;;6.18;3.05;;;18.00;99.90;;;;;;4965614;28;20417;-81
2023/08/01 04:59:09;;;;;;;5.10;2.60;;;18.00;99.90;;;;;;4931686;28;20301;-80
2023/08/01 05:01:35;;;;;;;5.05;2.83;;;18.10;99.90;;;;;;4942248;28;20054;-80
2023/08/01 05:04:01;;;;;;;6.23;3.03;;;18.10;99.90;;;;;;4947186;28;20065;-80
2023/08/01 05:06:27;;;;;;;4.47;3.00;;;18.10;99.90;;;;;;4955167;28;20081;-82
2023/08/01 05:08:53;;;;;;;5.90;2.90;;;18.10;99.90;;;;;;4943483;28;20034;-81
2023/08/01 05:11:19;;;;;;;5.03;3.00;;;18.10;99.90;;;;;;4957016;28;20039;-82
2023/08/01 05:13:45;;;;;;;7.67;3.30;;;18.20;99.90;;;;;;4961382;28;20539;-82
2023/08/01 05:16:10;;;;;;;6.90;3.10;;;18.20;99.90;;;;;;4942768;28;20054;-82
2023/08/01 05:18:36;;;;;;;5.07;2.97;;;18.20;99.90;;;;;;4949993;28;20050;-82
2023/08/01 05:21:02;;;;;;;6.75;2.78;;;18.20;99.90;;;;;;4970636;28;20042;-82
2023/08/01 05:23:27;;;;;;;6.20;2.70;;;18.20;99.90;;;;;;4952605;28;20038;-81
2023/08/01 05:25:53;;;;;;;5.03;3.00;;;18.20;99.90;;;;;;4951505;28;20085;-81
2023/08/01 05:28:19;;;;;;;5.90;3.10;;;18.20;99.90;;;;;;4964191;28;20088;-80
2023/08/01 05:30:45;;;;;;;6.73;3.20;;;18.20;99.90;;;;;;4936798;28;20804;-81
2023/08/01 05:33:11;;;;;;;6.68;3.10;;;18.20;99.90;;;;;;4976419;28;20019;-82
2023/08/01 05:35:36;;;;;;;5.68;3.22;;;18.30;99.90;;;;;;4951008;28;20038;-82
2023/08/01 05:38:02;;;;;;;4.03;2.67;;;18.30;99.90;;;;;;4963716;28;20035;-82
2023/08/01 05:40:28;;;;;;;4.78;2.53;;;18.30;99.90;;;;;;4951854;28;20460;-84
2023/08/01 05:42:54;;;;;;;5.23;2.77;;;18.40;99.90;;;;;;4955771;28;20034;-81
2023/08/01 05:45:19;;;;;;;4.43;2.55;;;18.40;99.90;;;;;;4960432;28;20359;-81
2023/08/01 05:47:45;;;;;;;4.57;2.50;;;18.40;99.90;;;;;;4935676;28;20015;-81
2023/08/01 05:50:11;;;;;;;5.57;2.90;;;18.40;99.90;;;;;;4944663;28;20038;-81
2023/08/01 05:52:36;;;;;;;5.73;2.80;;;18.40;99.90;;;;;;4948241;28;20069;-81
2023/08/01 05:55:02;;;;;;;5.07;3.10;;;18.50;99.90;;;;;;4956042;28;20050;-81
2023/08/01 05:57:29;;;;;;;6.40;2.80;;;18.50;99.90;;;;;;4947192;28;20101;-81
2023/08/01 05:59:54;;;;;;;7.20;2.95;;;18.50;99.90;;;;;;4953915;28;20027;-81
2023/08/01 06:02:20;;;;;;;5.68;3.03;;;18.60;99.90;;;;;;4935806;28;20427;-82
2023/08/01 06:04:46;;;;;;;4.67;2.90;;;18.60;99.90;;;;;;4963138;28;20401;-81
2023/08/01 06:07:12;;;;;;;5.30;2.90;;;18.60;99.90;;;;;;4953921;28;20303;-83
2023/08/01 06:09:37;;;;;;;5.03;2.90;;;18.60;99.90;;;;;;4941177;28;20232;-82
2023/08/01 06:12:04;;;;;;;6.78;3.55;;;18.70;99.90;;;;;;4956918;28;20031;-81
2023/08/01 06:14:30;;;;;;;6.47;3.08;;;18.70;99.90;;;;;;4980538;28;20522;-83
2023/08/01 06:16:55;;;;;;;6.53;3.50;;;18.80;99.90;;;;;;4928686;28;20108;-80
2023/08/01 06:19:21;;;;;;;6.63;2.80;;;18.80;99.90;;;;;;4954276;28;20115;-81
2023/08/01 06:21:47;;;;;;;4.20;2.60;;;18.80;99.90;;;;;;4963297;28;20153;-80
2023/08/01 06:24:13;;;;;;;4.43;2.47;;;18.80;99.90;;;;;;4965839;28;20071;-79
2023/08/01 06:26:39;;;;;;;5.80;3.20;;;18.80;99.90;;;;;;4963338;28;20030;-79
2023/08/01 06:29:04;;;;;;;4.73;2.70;;;18.80;99.90;;;;;;4945967;28;20041;-83
2023/08/01 06:31:30;;;;;;;6.07;3.22;;;18.90;99.90;;;;;;4965045;28;20311;-77
2023/08/01 06:33:56;;;;;;;6.30;2.88;;;18.90;99.90;;;;;;4944892;28;20038;-81
2023/08/01 06:36:22;;;;;;;7.43;3.10;;;;;;;;;;4985664;28;20037;-76
2023/08/01 06:38:49;;;;;;;5.28;3.10;;;18.90;99.90;;;;;;4955447;28;20584;-81
2023/08/01 06:41:15;;;;;;;6.50;3.10;;;18.90;99.90;;;;;;4939422;28;20260;-80
2023/08/01 06:43:41;;;;;;;7.32;3.10;;;19.00;99.90;;;;;;4938463;28;20069;-78
2023/08/01 06:46:07;;;;;;;6.97;3.37;;;19.10;99.90;;;;;;4962315;28;20115;-78
2023/08/01 06:48:34;;;;;;;5.20;3.08;;;19.10;99.90;;;;;;4961249;28;20426;-80
2023/08/01 06:51:02;;;;;;;6.47;3.20;;;19.20;99.90;;;;;;4945108;28;20405;-82
2023/08/01 06:53:29;;;;;;;4.50;3.10;;;19.30;99.90;;;;;;4970015;28;20048;-78
2023/08/01 06:55:54;;;;;;;6.10;3.53;;;19.30;99.90;;;;;;4934814;28;20385;-82
2023/08/01 06:58:20;;;;;;;7.30;3.78;;;19.30;99.90;;;;;;4975661;28;20309;-80
2023/08/01 07:00:46;;;;;;;6.50;3.37;;;19.30;99.90;;;;;;4945003;28;20654;-80
2023/08/01 07:03:11;;;;;;;6.32;3.50;;;19.40;99.90;;;;;;4961832;28;20172;-79
2023/08/01 07:05:38;;;;;;;6.67;3.47;;;19.40;99.90;;;;;;4961413;28;20720;-79
2023/08/01 07:08:04;;;;;;;5.60;3.00;;;19.40;99.90;;;;;;4958129;28;20135;-80
2023/08/01 07:10:33;;;;;;;6.03;3.45;;;19.40;99.90;;;;;;4940963;28;20034;-77
2023/08/01 07:13:01;;;;;;;6.05;3.50;;;19.50;99.90;;;;;;4967937;28;20023;-81
2023/08/01 07:15:27;;;;;;;5.30;3.40;;;19.50;99.90;;;;;;4942817;28;20042;-79
2023/08/01 07:17:53;;;;;;;5.32;2.83;;;19.60;99.90;;;;;;4959900;28;20448;-81
2023/08/01 07:20:19;;;;;;;5.83;2.87;;;20.30;99.90;;;;;;4925532;28;20057;-78
2023/08/01 07:22:44;;;;;;;6.00;2.90;;;19.60;99.90;;;;;;4964069;28;20105;-81
2023/08/01 07:25:11;;;;;;;4.07;2.67;;;19.60;99.90;;;;;;4935141;28;20546;-78
2023/08/01 07:27:37;;;;;;;6.05;2.78;;;19.60;99.90;;;;;;4957214;28;20642;-78
2023/08/01 07:30:05;;;;;;;5.75;2.72;;;19.60;99.90;;;;;;4944890;28;20018;-82
2023/08/01 07:32:31;;;;;;;4.40;2.92;;;19.60;99.90;;;;;;4963890;28;20548;-78
2023/08/01 07:34:57;;;;;;;5.57;2.87;;;19.60;99.90;;;;;;4948088;28;20081;-81
2023/08/01 07:37:22;;;;;;;4.75;2.90;;;19.70;99.90;;;;;;4926265;28;20022;-78
2023/08/01 07:39:49;;;;;;;5.93;2.70;;;19.70;99.90;;;;;;4960103;28;22177;-81
2023/08/01 07:42:15;;;;;;;5.87;2.70;;;19.70;99.90;;;;;;4973502;28;20236;-76
2023/08/01 07:44:41;;;;;;;5.20;2.50;;;19.80;99.90;;;;;;4960100;28;20109;-78
2023/08/01 07:47:07;;;;;;;3.97;2.43;;;19.80;99.90;;;;;;4950778;28;20498;-78
2023/08/01 07:49:33;;;;;;;5.70;2.70;;;19.80;99.90;;;;;;4965230;28;20519;-79
2023/08/01 07:51:59;;;;;;;5.13;2.65;;;19.90;99.90;;;;;;4943777;28;20395;-80
2023/08/01 07:54:25;;;;;;;3.57;2.60;;;19.90;99.90;;;;;;4948742;28;20062;-78
2023/08/01 07:56:50;;;;;;;4.32;2.90;;;20.00;99.90;;;;;;4942349;28;20037;-82
2023/08/01 07:59:16;;;;;;;3.90;2.67;;;20.00;99.90;;;;;;4955983;28;20394;-81
2023/08/01 08:01:42;;;;;;;4.43;2.60;;;20.10;99.90;;;;;;4969269;28;20501;-81
2023/08/01 08:04:08;;;;;;;4.75;2.88;;;20.10;99.90;;;;;;4950968;28;20089;-78
2023/08/01 08:06:34;;;;;;;5.07;2.90;;;20.20;99.90;;;;;;4945086;28;20030;-79
2023/08/01 08:08:59;;;;;;;5.22;3.25;;;20.30;99.90;;;;;;4972244;28;20034;-82
2023/08/01 08:11:25;;;;;;;4.43;2.47;;;20.30;99.90;;;;;;4958035;28;20334;-78
2023/08/01 08:13:50;;;;;;;5.25;2.90;;;20.40;99.90;;;;;;4966946;28;20658;-82
2023/08/01 08:16:16;;;;;;;6.53;3.00;;;20.50;99.90;;;;;;4928670;28;20060;-79
2023/08/01 08:18:42;;;;;;;5.07;2.70;;;20.50;99.90;;;;;;4984256;28;20038;-79
2023/08/01 08:21:08;;;;;;;4.97;2.90;;;20.60;99.90;;;;;;4980010;28;20030;-79
2023/08/01 08:23:33;;;;;;;5.10;3.22;;;20.60;99.90;;;;;;4919116;28;20035;-79
2023/08/01 08:25:59;;;;;;;5.43;2.70;;;20.80;99.90;;;;;;4955239;28;20558;-81
2023/08/01 08:28:29;;;;;;;4.47;2.67;;;21.00;99.90;;;;;;4960881;28;20034;-79
2023/08/01 08:30:55;;;;;;;4.53;3.03;;;21.30;99.90;;;;;;4954506;28;20022;-79
2023/08/01 08:33:21;;;;;;;3.33;2.80;;;21.60;99.90;;;;;;4952201;28;20573;-76
2023/08/01 08:35:47;;;;;;;6.47;3.00;;;21.90;99.90;;;;;;4981852;28;20049;-80
2023/08/01 08:38:13;;;;;;;5.05;2.72;;;20.30;99.90;;;;;;4927895;28;20705;-79
2023/08/01 08:40:43;;;;;;;4.83;2.60;;;22.30;99.90;;;;;;4985961;28;20089;-78
2023/08/01 08:43:11;;;;;;;4.57;2.70;;;22.50;99.90;;;;;;4969548;28;20035;-80
2023/08/01 08:45:41;;;;;;;5.60;2.70;;;22.60;99.90;;;;;;4976515;28;20102;-79
2023/08/01 08:48:15;;;;;;;3.92;2.60;;;22.80;99.90;;;;;;4947357;28;21098;-80
2023/08/01 08:50:42;;;;;;;5.37;2.60;;;22.90;99.90;;;;;;4951013;28;20317;-78
2023/08/01 08:53:12;;;;;;;3.95;2.60;;;23.10;99.90;;;;;;4944793;28;20678;-80
2023/08/01 08:55:41;;;;;;;4.38;2.67;;;23.20;99.90;;;;;;4948864;28;20050;-78
2023/08/01 08:58:08;;;;;;;4.40;2.63;;;23.20;99.90;;;;;;4950561;28;20030;-80
2023/08/01 09:00:37;;;;;;;4.10;2.72;;;23.30;99.90;;;;;;4976248;28;20036;-78
2023/08/01 09:03:04;;;;;;;4.43;2.90;;;23.40;99.90;;;;;;4964094;28;20130;-83
2023/08/01 09:05:34;;;;;;;3.67;2.55;;;23.50;99.90;;;;;;4967114;28;20508;-82
2023/08/01 09:08:04;;;;;;;3.63;2.60;;;23.80;99.90;;;;;;4946486;28;20057;-81
2023/08/01 09:10:31;;;;;;;3.85;2.40;;;24.20;99.90;;;;;;4935272;28;20027;-82
2023/08/01 09:12:57;;;;;;;4.00;2.40;;;24.50;99.90;;;;;;4957202;28;20110;-83
2023/08/01 09:15:26;;;;;;;3.90;2.00;;;24.70;99.90;;;;;;4964398;28;20038;-80
2023/08/01 09:17:55;;;;;;;3.08;2.00;;;25.00;99.90;;;;;;4959940;28;20500;-81
2023/08/01 09:20:21;;;;;;;4.65;2.40;;;25.10;99.90;;;;;;4950226;28;20523;-78
2023/08/01 09:22:47;;;;;;;5.33;2.50;;;25.30;99.90;;;;;;4951847;28;20045;-80
2023/08/01 09:25:14;;;;;;;5.13;2.80;;;25.40;99.90;;;;;;4943045;28;20241;-80
2023/08/01 09:27:40;;;;;;;4.05;2.70;;;25.70;99.90;;;;;;4964516;28;20062;-79
2023/08/01 09:30:15;;;;;;;4.37;2.87;;;25.90;99.90;;;;;;4949656;28;20372;-79
2023/08/01 09:32:55;;;;;;;3.75;2.80;;;26.20;99.90;;;;;;4974438;28;20022;-80
2023/08/01 09:35:23;;;;;;;4.25;2.63;;;26.60;99.90;;;;;;4966870;28;20595;-79
2023/08/01 09:37:49;;;;;;;3.67;2.75;;;27.00;99.90;;;;;;4964913;28;20485;-81
2023/08/01 09:40:15;;;;;;;4.27;2.70;;;27.30;99.90;;;;;;4952450;28;20042;-76
2023/08/01 09:42:42;;;;;;;4.18;2.70;;;27.50;99.90;;;;;;4926163;28;20033;-78
2023/08/01 09:45:18;;;;;;;3.92;3.20;;;27.60;99.90;;;;;;4950921;28;20353;-80
2023/08/01 09:47:45;;;;;;;4.60;3.00;;;27.70;99.90;;;;;;4954031;28;20566;-82
2023/08/01 09:50:12;;;;;;;3.70;2.90;;;27.80;99.90;;;;;;4960996;28;20041;-81
2023/08/01 09:52:38;;;;;;;3.67;3.00;;;27.80;99.90;;;;;;4956711;28;20595;-80
2023/08/01 09:55:05;;;;;;;4.25;3.25;;;28.00;99.90;;;;;;4963520;28;20257;-80
2023/08/01 09:57:31;;;;;;;4.13;3.40;;;28.20;99.90;;;;;;4945774;28;20516;-80
2023/08/01 09:59:58;;;;;;;5.93;3.20;;;28.30;99.90;;;;;;4942871;28;20030;-84
2023/08/01 10:02:26;;;;;;;3.47;3.00;;;28.30;99.90;;;;;;4951706;28;20052;-79
2023/08/01 10:05:00;;;;;;;4.70;3.00;;;28.30;99.90;;;;;;4964885;28;20063;-80
2023/08/01 10:07:28;;;;;;;3.67;3.03;;;28.30;99.90;;;;;;4968310;28;20165;-80
2023/08/01 10:09:58;;;;;;;5.05;3.17;;;28.40;99.90;;;;;;4983193;28;20041;-81
2023/08/01 10:12:26;;;;;;;5.82;3.22;;;28.50;99.90;;;;;;4962734;28;20045;-78
2023/08/01 10:14:53;;;;;;;3.40;2.73;;;28.70;99.90;;;;;;4945840;28;20066;-81
2023/08/01 10:17:21;;;;;;;4.38;2.90;;;29.00;99.90;;;;;;4948604;28;20769;-81
2023/08/01 10:19:48;;;;;;;3.33;2.45;;;29.10;99.90;;;;;;4980940;28;20030;-82
2023/08/01 10:22:14;;;;;;;3.40;2.50;;;29.10;99.90;;;;;;4947975;28;20584;-78
2023/08/01 10:24:41;;;;;;;4.28;2.67;;;29.10;99.90;;;;;;4959601;28;20105;-77
2023/08/01 10:27:21;;;;;;;3.17;2.70;;;29.00;99.90;;;;;;4959123;28;20011;-80
2023/08/01 10:30:01;;;;;;;3.13;2.58;;;28.90;99.90;;;;;;4959075;28;20027;-81
2023/08/01 10:32:32;;;;;;;3.47;2.50;;;28.80;98.70;;;;;;4951808;28;20033;-78
2023/08/01 10:34:58;;;;;;;4.10;2.10;;;28.70;99.90;;;;;;4952123;28;20046;-81
2023/08/01 10:37:24;;;;;;;2.55;2.10;;;28.70;99.90;;;;;;4938523;28;20026;-80
2023/08/01 10:39:58;;;;;;;3.10;2.20;;;28.50;99.90;;;;;;4965804;28;20035;-81
2023/08/01 10:42:24;;;;;;;3.33;2.35;;;28.40;99.40;;;;;;4961655;28;20034;-78
2023/08/01 10:44:50;;;;;;;2.97;2.10;;;28.30;99.90;;;;;;4965734;28;20022;-81
2023/08/01 10:47:26;;;;;;;3.58;2.28;;;28.10;99.90;;;;;;4944360;28;20077;-78
2023/08/01 10:49:52;;;;;;;4.43;2.00;;;27.90;98.60;;;;;;4974180;28;20045;-80
2023/08/01 10:52:27;;;;;;;4.03;2.30;;;27.80;99.90;;;;;;4961228;28;20156;-80
2023/08/01 10:55:01;;;;;;;4.53;2.60;;;27.70;99.90;;;;;;4950351;28;20026;-80
2023/08/01 10:57:29;;;;;;;2.78;2.17;;;27.60;97.30;;;;;;4978305;28;20430;-78
2023/08/01 10:59:56;;;;;;;2.95;2.33;;;27.60;99.90;;;;;;4982600;28;20531;-81
2023/08/01 11:02:24;;;;;;;3.97;2.37;;;27.60;99.90;;;;;;4938117;28;20257;-78
2023/08/01 11:05:00;;;;;;;4.50;2.50;;;27.60;99.90;;;;;;4955740;28;20424;-82
2023/08/01 11:07:26;;;;;;;3.63;2.58;;;27.70;99.90;;;;;;4956542;28;20106;-81
2023/08/01 11:10:08;;;;;;;4.40;2.80;;;27.80;99.90;;;;;;4944893;28;20054;-82
2023/08/01 11:12:40;;;;;;;2.90;2.50;;;27.90;99.90;;;;;;4943639;28;20027;-78
2023/08/01 11:15:09;;;;;;;3.70;2.77;;;27.90;99.90;;;;;;4952630;28;20291;-79
2023/08/01 11:17:42;;;;;;;5.78;2.65;;;28.00;99.90;;;;;;4939505;28;20019;-79
2023/08/01 11:20:10;;;;;;;4.15;2.30;;;27.90;99.90;;;;;;4963195;28;20027;-79
2023/08/01 11:22:37;;;;;;;4.00;2.40;;;27.90;99.90;;;;;;4946801;28;20089;-78
2023/08/01 11:25:04;;;;;;;3.05;2.10;;;27.80;99.90;;;;;;4941146;28;20022;-81
2023/08/01 11:27:30;;;;;;;4.67;2.70;;;27.60;99.90;;;;;;4959867;28;20407;-77
2023/08/01 11:29:56;;;;;;;5.28;2.70;;;27.40;99.90;;;;;;4967111;28;20019;-80
2023/08/01 11:32:32;;;;;;;4.10;2.40;;;27.20;99.90;;;;;;4960204;28;20026;-82
2023/08/01 11:34:57;;;;;;;3.05;2.53;;;27.00;99.90;;;;;;4908241;28;20062;-81
2023/08/01 11:37:26;;;;;;;3.63;2.40;;;26.80;99.90;;;;;;4949875;28;20058;-80
2023/08/01 11:39:54;;;;;;;5.15;2.70;;;26.60;99.50;;;;;;4945972;28;20113;-81
2023/08/01 11:42:20;;;;;;;3.63;2.78;;;26.40;99.50;;;;;;4977530;28;20063;-80
2023/08/01 11:44:46;;;;;;;3.87;2.57;;;26.30;99.90;;;;;;4958070;28;20707;-81
2023/08/01 11:47:14;;;;;;;3.88;2.80;;;26.20;99.90;;;;;;4957905;28;20051;-81
2023/08/01 11:49:45;;;;;;;3.35;2.50;;;26.10;99.90;;;;;;4937861;28;20089;-81
2023/08/01 11:52:10;;;;;;;4.55;2.50;;;26.10;99.90;;;;;;4948464;28;20133;-81
2023/08/01 11:54:45;;;;;;;4.30;2.57;;;26.20;99.90;;;;;;4960396;28;20042;-81
2023/08/01 11:57:11;;;;;;;3.05;2.40;;;26.20;99.90;;;;;;4958496;28;20035;-80
2023/08/01 11:59:47;;;;;;;3.30;2.60;;;26.30;99.90;;;;;;4956904;28;20022;-82
2023/08/01 12:02:32;;;;;;;3.60;2.33;;;26.40;99.90;;;;;;4950221;28;20046;-81
2023/08/01 12:04:58;;;;;;;3.08;2.35;;;26.50;99.90;;;;;;4927274;28;20043;-81
2023/08/01 12:07:29;;;;;;;4.30;2.20;;;26.80;99.90;;;;;;4931784;28;20133;-81
2023/08/01 12:09:59;;;;;;;3.95;2.55;;;27.00;99.90;;;;;;4918593;28;20650;-81
2023/08/01 12:12:27;;;;;;;3.03;2.50;;;27.10;99.90;;;;;;4953801;28;20157;-82
2023/08/01 12:14:53;;;;;;;3.30;2.33;;;27.20;99.90;;;;;;4938733;28;20037;-82
2023/08/01 12:17:19;;;;;;;3.40;2.40;;;27.30;99.90;;;;;;4952340;28;20043;-83
2023/08/01 12:19:46;;;;;;;4.28;2.28;;;27.30;99.90;;;;;;4916759;28;20060;-81
2023/08/01 12:22:12;;;;;;;3.78;2.15;;;27.40;99.90;;;;;;4947230;28;20247;-81
2023/08/01 12:24:38;;;;;;;3.07;2.27;;;27.50;99.90;;;;;;4960589;28;20374;-81
2023/08/01 12:27:06;;;;;;;2.78;2.10;;;27.60;99.90;;;;;;4935530;28;21528;-83
2023/08/01 12:29:31;;;;;;;2.72;1.65;;;27.70;99.90;;;;;;4941891;28;20045;-82
2023/08/01 12:31:57;;;;;;;2.63;1.80;;;27.70;99.90;;;;;;4954693;28;20396;-81
2023/08/01 12:34:23;;;;;;;4.65;1.77;;;27.80;99.90;;;;;;4932434;28;20645;-82
2023/08/01 12:36:48;;;;;;;2.70;1.87;;;27.80;99.90;;;;;;4941174;28;20130;-84
2023/08/01 12:39:14;;;;;;;2.97;2.03;;;27.90;99.90;;;;;;4935720;28;20390;-81
2023/08/01 12:41:40;;;;;;;2.43;1.90;;;27.90;99.90;;;;;;4932860;28;20433;-81
2023/08/01 12:44:06;;;;;;;3.50;2.00;;;28.00;99.90;;;;;;4910656;28;20264;-82
2023/08/01 12:46:32;;;;;;;1.87;1.60;;;28.00;99.90;;;;;;4960232;28;20037;-80